createdAt,value
2018-04-30T00:00:39.434Z,0
2018-04-30T00:01:38.922Z,0
2018-04-30T00:02:39.422Z,0
2018-04-30T00:03:39.418Z,0
2018-04-30T00:04:39.171Z,0
2018-04-30T00:05:39.157Z,0
2018-04-30T00:06:39.404Z,0
2018-04-30T00:07:38.891Z,0
2018-04-30T00:08:39.396Z,0
2018-04-30T00:09:39.390Z,0
2018-04-30T00:10:39.403Z,0
2018-04-30T00:11:39.383Z,0
2018-04-30T00:12:39.160Z,0
2018-04-30T00:13:39.377Z,0
2018-04-30T00:14:39.380Z,0
2018-04-30T00:15:39.106Z,0
2018-04-30T00:16:39.356Z,0
2018-04-30T00:17:39.349Z,0
2018-04-30T00:18:39.357Z,0
2018-04-30T00:19:39.344Z,0
2018-04-30T00:20:39.084Z,0
2018-04-30T00:21:39.342Z,0
2018-04-30T00:22:39.334Z,0
2018-04-30T00:23:39.076Z,0
2018-04-30T00:24:39.325Z,0
2018-04-30T00:25:39.073Z,0
2018-04-30T00:26:38.808Z,0
2018-04-30T00:27:39.309Z,0
2018-04-30T00:28:39.314Z,0
2018-04-30T00:29:39.310Z,0
2018-04-30T00:30:39.304Z,0
2018-04-30T00:31:39.287Z,0
2018-04-30T00:32:39.030Z,0
2018-04-30T00:33:39.288Z,0
2018-04-30T00:34:39.291Z,0
2018-04-30T00:35:39.015Z,0
2018-04-30T00:36:39.270Z,0
2018-04-30T00:37:39.266Z,0
2018-04-30T00:38:39.254Z,0
2018-04-30T00:39:39.264Z,0
2018-04-30T00:40:38.993Z,0
2018-04-30T00:41:39.246Z,0
2018-04-30T00:42:38.981Z,0
2018-04-30T00:43:38.739Z,0
2018-04-30T00:44:38.981Z,0
2018-04-30T00:45:39.225Z,0
2018-04-30T00:46:39.220Z,0
2018-04-30T00:47:39.218Z,0
2018-04-30T00:48:38.954Z,0
2018-04-30T00:49:39.206Z,0
2018-04-30T00:50:39.198Z,0
2018-04-30T00:51:39.201Z,0
2018-04-30T00:52:39.188Z,0
2018-04-30T00:53:39.204Z,0
2018-04-30T00:54:38.933Z,0
2018-04-30T00:55:38.922Z,0
2018-04-30T00:56:38.665Z,0
2018-04-30T00:57:38.665Z,0
2018-04-30T00:58:38.909Z,0
2018-04-30T00:59:38.918Z,0
2018-04-30T01:00:38.901Z,0
2018-04-30T01:01:38.899Z,0
2018-04-30T01:02:39.143Z,0
2018-04-30T01:03:38.988Z,0
2018-04-30T01:04:39.135Z,0
2018-04-30T01:05:39.136Z,0
2018-04-30T01:06:39.127Z,0
2018-04-30T01:07:38.878Z,0
2018-04-30T01:08:39.121Z,0
2018-04-30T01:09:39.114Z,0
2018-04-30T01:10:38.853Z,0
2018-04-30T01:11:39.110Z,0
2018-04-30T01:12:38.845Z,0
2018-04-30T01:13:38.844Z,0
2018-04-30T01:14:39.091Z,0
2018-04-30T01:15:39.089Z,0
2018-04-30T01:16:39.084Z,0
2018-04-30T01:17:38.822Z,0
2018-04-30T01:18:39.068Z,0
2018-04-30T01:19:38.815Z,0
2018-04-30T01:20:39.091Z,0
2018-04-30T01:21:39.052Z,0
2018-04-30T01:22:39.060Z,0
2018-04-30T01:23:39.055Z,0
2018-04-30T01:24:38.789Z,0
2018-04-30T01:25:39.037Z,0
2018-04-30T01:26:39.047Z,0
2018-04-30T01:27:38.772Z,0
2018-04-30T01:28:39.034Z,0
2018-04-30T01:29:39.015Z,0
2018-04-30T01:30:39.008Z,0
2018-04-30T01:31:39.020Z,0
2018-04-30T01:32:39.006Z,0
2018-04-30T01:33:39.001Z,0
2018-04-30T01:34:38.990Z,0
2018-04-30T01:35:38.996Z,0
2018-04-30T01:36:38.739Z,0
2018-04-30T01:37:38.725Z,0
2018-04-30T01:38:38.981Z,0
2018-04-30T01:39:38.970Z,0
2018-04-30T01:40:38.710Z,0
2018-04-30T01:41:38.968Z,0
2018-04-30T01:42:38.964Z,0
2018-04-30T01:43:38.953Z,0
2018-04-30T01:44:38.943Z,0
2018-04-30T01:45:38.940Z,0
2018-04-30T01:46:38.938Z,0
2018-04-30T01:47:38.930Z,0
2018-04-30T01:48:38.668Z,0
2018-04-30T01:49:38.927Z,0
2018-04-30T01:50:38.920Z,0
2018-04-30T01:51:38.654Z,0
2018-04-30T01:52:38.906Z,0
2018-04-30T01:53:38.898Z,0
2018-04-30T01:54:38.891Z,0
2018-04-30T01:55:38.893Z,0
2018-04-30T01:56:38.894Z,0
2018-04-30T01:57:38.624Z,0
2018-04-30T01:58:38.627Z,0
2018-04-30T01:59:38.873Z,0
2018-04-30T02:00:38.869Z,0
2018-04-30T02:01:38.865Z,0
2018-04-30T02:02:38.850Z,0
2018-04-30T02:03:38.855Z,0
2018-04-30T02:04:38.591Z,0
2018-04-30T02:05:38.584Z,0
2018-04-30T02:06:38.838Z,0
2018-04-30T02:07:38.831Z,4
2018-04-30T02:08:38.578Z,4
2018-04-30T02:09:38.818Z,4
2018-04-30T02:10:38.565Z,4
2018-04-30T02:11:38.805Z,4
2018-04-30T02:12:38.557Z,4
2018-04-30T02:13:38.550Z,0
2018-04-30T02:14:38.790Z,0
2018-04-30T02:15:38.533Z,0
2018-04-30T02:16:38.779Z,0
2018-04-30T02:17:38.528Z,0
2018-04-30T02:18:38.780Z,0
2018-04-30T02:19:38.516Z,0
2018-04-30T02:20:38.505Z,0
2018-04-30T02:21:38.753Z,0
2018-04-30T02:22:38.759Z,0
2018-04-30T02:23:38.745Z,0
2018-04-30T02:24:38.742Z,0
2018-04-30T02:25:38.752Z,0
2018-04-30T02:26:38.729Z,0
2018-04-30T02:27:38.724Z,0
2018-04-30T02:28:38.211Z,0
2018-04-30T02:29:38.717Z,0
2018-04-30T02:30:38.309Z,0
2018-04-30T02:31:38.705Z,0
2018-04-30T02:32:38.700Z,0
2018-04-30T02:33:38.909Z,0
2018-04-30T02:34:38.446Z,0
2018-04-30T02:35:38.683Z,0
2018-04-30T02:36:38.691Z,0
2018-04-30T02:37:38.681Z,0
2018-04-30T02:38:38.685Z,0
2018-04-30T02:39:38.476Z,0
2018-04-30T02:40:38.681Z,0
2018-04-30T02:41:38.404Z,0
2018-04-30T02:42:38.651Z,0
2018-04-30T02:43:38.155Z,0
2018-04-30T02:44:38.641Z,0
2018-04-30T02:45:38.649Z,0
2018-04-30T02:46:38.370Z,0
2018-04-30T02:47:38.376Z,0
2018-04-30T02:48:38.637Z,0
2018-04-30T02:49:38.360Z,0
2018-04-30T02:50:38.607Z,0
2018-04-30T02:51:38.364Z,0
2018-04-30T02:52:38.355Z,0
2018-04-30T02:53:38.589Z,0
2018-04-30T02:54:38.604Z,0
2018-04-30T02:55:38.331Z,4
2018-04-30T02:56:38.578Z,4
2018-04-30T02:57:38.314Z,0
2018-04-30T02:58:38.308Z,0
2018-04-30T02:59:38.575Z,4
2018-04-30T03:00:38.304Z,4
2018-04-30T03:01:38.543Z,4
2018-04-30T03:02:38.315Z,8
2018-04-30T03:03:38.551Z,4
2018-04-30T03:04:38.277Z,4
2018-04-30T03:05:38.627Z,4
2018-04-30T03:06:38.519Z,8
2018-04-30T03:07:38.526Z,8
2018-04-30T03:08:38.511Z,12
2018-04-30T03:09:38.355Z,12
2018-04-30T03:10:38.252Z,12
2018-04-30T03:11:38.507Z,20
2018-04-30T03:12:38.492Z,20
2018-04-30T03:13:38.480Z,24
2018-04-30T03:14:38.298Z,28
2018-04-30T03:15:38.473Z,28
2018-04-30T03:16:38.210Z,36
2018-04-30T03:17:38.211Z,40
2018-04-30T03:18:38.206Z,44
2018-04-30T03:19:38.196Z,52
2018-04-30T03:20:38.449Z,56
2018-04-30T03:21:38.436Z,68
2018-04-30T03:22:38.175Z,72
2018-04-30T03:23:38.174Z,84
2018-04-30T03:24:38.177Z,92
2018-04-30T03:25:37.907Z,104
2018-04-30T03:26:38.406Z,112
2018-04-30T03:27:38.402Z,128
2018-04-30T03:28:38.484Z,140
2018-04-30T03:29:38.399Z,156
2018-04-30T03:30:38.388Z,172
2018-04-30T03:31:38.395Z,196
2018-04-30T03:32:38.373Z,216
2018-04-30T03:33:38.370Z,236
2018-04-30T03:34:38.376Z,256
2018-04-30T03:35:38.120Z,280
2018-04-30T03:36:38.355Z,304
2018-04-30T03:37:38.350Z,336
2018-04-30T03:38:38.360Z,364
2018-04-30T03:39:38.086Z,396
2018-04-30T03:40:38.088Z,428
2018-04-30T03:41:38.341Z,460
2018-04-30T03:42:38.320Z,500
2018-04-30T03:43:38.316Z,536
2018-04-30T03:44:38.312Z,572
2018-04-30T03:45:38.304Z,612
2018-04-30T03:46:38.301Z,680
2018-04-30T03:47:38.291Z,732
2018-04-30T03:48:38.284Z,780
2018-04-30T03:49:38.355Z,824
2018-04-30T03:50:38.280Z,868
2018-04-30T03:51:38.268Z,916
2018-04-30T03:52:38.261Z,968
2018-04-30T03:53:38.266Z,1024
2018-04-30T03:54:38.259Z,1084
2018-04-30T03:55:38.249Z,1144
2018-04-30T03:56:38.246Z,1168
2018-04-30T03:57:38.233Z,1232
2018-04-30T03:58:37.986Z,1308
2018-04-30T03:59:38.228Z,1384
2018-04-30T04:00:38.240Z,1460
2018-04-30T04:01:38.234Z,1536
2018-04-30T04:02:37.982Z,1616
2018-04-30T04:03:38.210Z,1700
2018-04-30T04:04:38.200Z,1788
2018-04-30T04:05:37.937Z,1880
2018-04-30T04:06:38.189Z,1972
2018-04-30T04:07:37.941Z,2068
2018-04-30T04:08:37.922Z,2184
2018-04-30T04:09:37.915Z,2292
2018-04-30T04:10:38.173Z,2404
2018-04-30T04:11:38.160Z,2512
2018-04-30T04:12:38.227Z,2680
2018-04-30T04:13:37.897Z,2836
2018-04-30T04:14:38.138Z,2956
2018-04-30T04:15:38.171Z,3092
2018-04-30T04:16:37.877Z,3220
2018-04-30T04:17:37.872Z,3328
2018-04-30T04:18:38.122Z,3484
2018-04-30T04:19:38.118Z,3632
2018-04-30T04:20:37.610Z,3804
2018-04-30T04:21:38.111Z,3956
2018-04-30T04:22:38.098Z,4104
2018-04-30T04:23:37.849Z,4260
2018-04-30T04:24:37.838Z,4428
2018-04-30T04:25:37.833Z,4596
2018-04-30T04:26:37.831Z,4744
2018-04-30T04:27:37.819Z,4896
2018-04-30T04:28:37.818Z,5064
2018-04-30T04:29:37.816Z,5240
2018-04-30T04:30:38.059Z,5392
2018-04-30T04:31:37.807Z,5656
2018-04-30T04:32:37.815Z,5836
2018-04-30T04:33:37.864Z,6020
2018-04-30T04:34:38.039Z,6136
2018-04-30T04:35:37.533Z,6388
2018-04-30T04:36:38.037Z,6572
2018-04-30T04:37:37.525Z,6840
2018-04-30T04:38:38.021Z,6988
2018-04-30T04:39:37.513Z,7352
2018-04-30T04:40:38.027Z,7460
2018-04-30T04:41:37.799Z,7512
2018-04-30T04:42:38.012Z,7684
2018-04-30T04:43:38.005Z,7808
2018-04-30T04:44:38.009Z,8056
2018-04-30T04:45:37.745Z,8316
2018-04-30T04:46:37.741Z,8668
2018-04-30T04:47:37.844Z,8768
2018-04-30T04:48:37.987Z,9404
2018-04-30T04:49:37.984Z,9472
2018-04-30T04:50:37.979Z,9656
2018-04-30T04:51:37.985Z,10136
2018-04-30T04:52:37.983Z,10004
2018-04-30T04:53:37.723Z,10496
2018-04-30T04:54:37.716Z,11096
2018-04-30T04:55:37.975Z,10788
2018-04-30T04:56:37.969Z,11244
2018-04-30T04:57:37.712Z,11868
2018-04-30T04:58:37.961Z,11596
2018-04-30T04:59:37.968Z,11704
2018-04-30T05:00:37.962Z,11552
2018-04-30T05:01:37.700Z,11568
2018-04-30T05:02:37.953Z,11920
2018-04-30T05:03:37.956Z,11632
2018-04-30T05:04:38.009Z,11752
2018-04-30T05:05:37.949Z,12252
2018-04-30T05:06:37.706Z,12260
2018-04-30T05:07:37.948Z,12296
2018-04-30T05:08:37.942Z,12672
2018-04-30T05:09:37.689Z,13168
2018-04-30T05:10:37.945Z,13052
2018-04-30T05:11:37.972Z,13240
2018-04-30T05:12:37.958Z,13324
2018-04-30T05:13:37.945Z,13372
2018-04-30T05:14:37.690Z,14156
2018-04-30T05:15:37.446Z,14240
2018-04-30T05:16:37.933Z,14592
2018-04-30T05:17:37.941Z,15616
2018-04-30T05:18:37.934Z,16256
2018-04-30T05:19:37.951Z,16480
2018-04-30T05:20:37.944Z,16224
2018-04-30T05:21:37.938Z,16608
2018-04-30T05:22:37.449Z,17536
2018-04-30T05:23:37.942Z,18016
2018-04-30T05:24:37.428Z,18272
2018-04-30T05:25:37.947Z,18752
2018-04-30T05:26:37.954Z,19296
2018-04-30T05:27:37.939Z,19040
2018-04-30T05:28:37.717Z,19264
2018-04-30T05:29:37.699Z,20288
2018-04-30T05:30:37.433Z,20064
2018-04-30T05:31:37.441Z,19392
2018-04-30T05:32:37.942Z,20320
2018-04-30T05:33:37.441Z,21248
2018-04-30T05:34:37.940Z,21280
2018-04-30T05:35:37.944Z,21088
2018-04-30T05:36:37.690Z,21120
2018-04-30T05:37:37.948Z,21440
2018-04-30T05:38:37.963Z,22176
2018-04-30T05:39:37.709Z,22592
2018-04-30T05:40:37.954Z,22880
2018-04-30T05:41:37.955Z,22944
2018-04-30T05:42:38.039Z,23136
2018-04-30T05:43:37.708Z,24384
2018-04-30T05:44:37.960Z,24864
2018-04-30T05:45:37.984Z,24640
2018-04-30T05:46:37.970Z,25312
2018-04-30T05:47:37.979Z,26144
2018-04-30T05:48:37.980Z,26048
2018-04-30T05:49:37.724Z,26400
2018-04-30T05:50:37.731Z,27040
2018-04-30T05:51:37.493Z,27232
2018-04-30T05:52:37.737Z,26848
2018-04-30T05:53:37.497Z,26944
2018-04-30T05:54:38.011Z,28576
2018-04-30T05:55:38.007Z,30368
2018-04-30T05:56:37.772Z,29824
2018-04-30T05:57:38.010Z,28000
2018-04-30T05:58:37.774Z,27392
2018-04-30T05:59:38.018Z,29536
2018-04-30T06:00:38.349Z,31616
2018-04-30T06:01:37.858Z,31392
2018-04-30T06:02:38.041Z,30912
2018-04-30T06:03:38.047Z,32736
2018-04-30T06:04:37.535Z,34496
2018-04-30T06:05:37.540Z,33056
2018-04-30T06:06:38.073Z,29952
2018-04-30T06:07:38.058Z,29632
2018-04-30T06:08:38.061Z,31328
2018-04-30T06:09:38.096Z,31264
2018-04-30T06:10:37.819Z,29696
2018-04-30T06:11:37.829Z,28448
2018-04-30T06:12:38.086Z,28160
2018-04-30T06:13:37.920Z,28064
2018-04-30T06:14:38.104Z,28096
2018-04-30T06:15:37.852Z,28352
2018-04-30T06:16:37.856Z,28672
2018-04-30T06:17:38.516Z,29280
2018-04-30T06:18:38.136Z,30048
2018-04-30T06:19:38.149Z,30176
2018-04-30T06:20:38.134Z,29728
2018-04-30T06:21:38.144Z,29056
2018-04-30T06:22:37.896Z,28704
2018-04-30T06:23:37.902Z,29120
2018-04-30T06:24:37.910Z,29504
2018-04-30T06:25:38.190Z,29952
2018-04-30T06:26:38.133Z,30208
2018-04-30T06:27:38.257Z,29792
2018-04-30T06:28:38.274Z,29984
2018-04-30T06:29:38.240Z,31552
2018-04-30T06:30:38.225Z,35360
2018-04-30T06:31:38.263Z,40768
2018-04-30T06:32:38.004Z,45344
2018-04-30T06:33:38.243Z,47424
2018-04-30T06:34:38.249Z,47456
2018-04-30T06:35:38.286Z,45216
2018-04-30T06:36:38.305Z,43584
2018-04-30T06:37:38.295Z,46816
2018-04-30T06:38:38.320Z,51328
2018-04-30T06:39:38.339Z,53440
2018-04-30T06:40:38.090Z,53760
2018-04-30T06:41:37.852Z,53056
2018-04-30T06:42:38.337Z,54304
2018-04-30T06:43:38.080Z,55840
2018-04-30T06:44:38.341Z,61152
2018-04-30T06:45:38.350Z,60640
2018-04-30T06:46:38.363Z,58656
2018-04-30T06:47:38.679Z,55232
2018-04-30T06:48:38.389Z,58560
2018-04-30T06:49:38.402Z,67072
2018-04-30T06:50:38.146Z,70848
2018-04-30T06:51:38.151Z,65760
2018-04-30T06:52:37.919Z,58656
2018-04-30T06:53:38.447Z,48992
2018-04-30T06:54:38.516Z,45568
2018-04-30T06:55:38.446Z,45408
2018-04-30T06:56:38.224Z,45920
2018-04-30T06:57:37.960Z,47424
2018-04-30T06:58:37.975Z,49504
2018-04-30T06:59:38.489Z,50080
2018-04-30T07:00:38.247Z,46688
2018-04-30T07:01:38.257Z,46656
2018-04-30T07:02:38.271Z,49280
2018-04-30T07:03:38.548Z,47296
2018-04-30T07:04:38.557Z,45568
2018-04-30T07:05:38.554Z,42880
2018-04-30T07:06:38.618Z,43680
2018-04-30T07:07:38.329Z,41952
2018-04-30T07:08:38.592Z,43008
2018-04-30T07:09:39.606Z,44736
2018-04-30T07:10:38.617Z,43776
2018-04-30T07:11:38.631Z,41984
2018-04-30T07:12:38.405Z,39104
2018-04-30T07:13:38.658Z,36544
2018-04-30T07:14:38.428Z,35104
2018-04-30T07:15:38.733Z,35680
2018-04-30T07:16:38.432Z,34560
2018-04-30T07:17:38.703Z,34560
2018-04-30T07:18:38.712Z,36928
2018-04-30T07:19:38.727Z,40896
2018-04-30T07:20:38.493Z,43424
2018-04-30T07:21:38.764Z,45824
2018-04-30T07:22:38.758Z,44512
2018-04-30T07:23:38.526Z,48384
2018-04-30T07:24:38.537Z,49632
2018-04-30T07:25:38.796Z,50016
2018-04-30T07:26:38.573Z,49536
2018-04-30T07:27:38.757Z,47488
2018-04-30T07:28:38.853Z,48320
2018-04-30T07:29:38.359Z,46976
2018-04-30T07:30:38.875Z,46624
2018-04-30T07:31:38.893Z,44288
2018-04-30T07:32:38.655Z,45056
2018-04-30T07:33:38.392Z,47136
2018-04-30T07:34:38.662Z,48576
2018-04-30T07:35:38.422Z,50048
2018-04-30T07:36:38.945Z,55296
2018-04-30T07:37:38.953Z,60128
2018-04-30T07:38:38.976Z,59104
2018-04-30T07:39:38.983Z,56800
2018-04-30T07:40:38.747Z,62112
2018-04-30T07:41:38.783Z,62432
2018-04-30T07:42:39.078Z,63808
2018-04-30T07:43:39.044Z,61472
2018-04-30T07:44:39.047Z,58208
2018-04-30T07:45:38.808Z,63904
2018-04-30T07:46:39.085Z,72544
2018-04-30T07:47:39.091Z,77824
2018-04-30T07:48:39.107Z,73280
2018-04-30T07:49:39.118Z,75424
2018-04-30T07:50:38.891Z,77248
2018-04-30T07:51:39.160Z,76416
2018-04-30T07:52:39.164Z,77664
2018-04-30T07:53:39.181Z,78912
2018-04-30T07:54:39.128Z,78240
2018-04-30T07:55:39.217Z,68384
2018-04-30T07:56:39.229Z,70976
2018-04-30T07:57:38.984Z,78912
2018-04-30T07:58:39.254Z,81280
2018-04-30T07:59:39.277Z,78496
2018-04-30T08:00:39.027Z,79520
2018-04-30T08:01:39.053Z,82464
2018-04-30T08:02:39.319Z,94112
2018-04-30T08:03:39.326Z,87680
2018-04-30T08:04:39.090Z,74336
2018-04-30T08:05:39.106Z,66112
2018-04-30T08:06:39.380Z,63392
2018-04-30T08:07:39.400Z,62720
2018-04-30T08:08:39.415Z,58624
2018-04-30T08:09:39.431Z,52992
2018-04-30T08:10:39.439Z,49920
2018-04-30T08:11:39.454Z,54784
2018-04-30T08:12:39.479Z,58304
2018-04-30T08:13:39.491Z,59232
2018-04-30T08:14:39.501Z,56224
2018-04-30T08:15:39.508Z,57824
2018-04-30T08:16:39.533Z,60032
2018-04-30T08:17:39.546Z,60672
2018-04-30T08:18:39.558Z,60384
2018-04-30T08:19:39.581Z,62048
2018-04-30T08:20:39.332Z,64256
2018-04-30T08:21:39.879Z,57600
2018-04-30T08:22:39.356Z,55968
2018-04-30T08:23:39.635Z,58752
2018-04-30T08:24:39.641Z,69408
2018-04-30T08:25:39.679Z,68768
2018-04-30T08:26:39.669Z,64480
2018-04-30T08:27:39.692Z,64000
2018-04-30T08:28:39.703Z,65920
2018-04-30T08:29:39.199Z,66688
2018-04-30T08:30:39.724Z,61600
2018-04-30T08:31:39.744Z,54784
2018-04-30T08:32:39.751Z,52928
2018-04-30T08:33:39.531Z,47872
2018-04-30T08:34:39.553Z,39776
2018-04-30T08:35:39.307Z,23936
2018-04-30T08:36:39.689Z,16768
2018-04-30T08:37:39.563Z,15968
2018-04-30T08:38:39.830Z,15864
2018-04-30T08:39:39.600Z,15736
2018-04-30T08:40:39.610Z,15752
2018-04-30T08:41:39.860Z,15584
2018-04-30T08:42:39.884Z,15676
2018-04-30T08:43:39.906Z,15752
2018-04-30T08:44:39.904Z,15772
2018-04-30T08:45:39.664Z,15724
2018-04-30T08:46:39.948Z,15892
2018-04-30T08:47:39.677Z,15956
2018-04-30T08:48:39.685Z,15688
2018-04-30T08:49:39.956Z,15488
2018-04-30T08:50:39.965Z,15276
2018-04-30T08:51:39.995Z,14996
2018-04-30T08:52:39.987Z,14632
2018-04-30T08:53:39.752Z,14244
2018-04-30T08:54:40.017Z,13804
2018-04-30T08:55:40.030Z,13588
2018-04-30T08:56:40.044Z,13452
2018-04-30T08:57:40.024Z,13168
2018-04-30T08:58:40.042Z,12968
2018-04-30T08:59:39.791Z,12784
2018-04-30T09:00:39.930Z,12564
2018-04-30T09:01:40.067Z,12368
2018-04-30T09:02:40.059Z,12204
2018-04-30T09:03:40.071Z,12060
2018-04-30T09:04:39.564Z,12000
2018-04-30T09:05:39.328Z,11884
2018-04-30T09:06:40.082Z,11856
2018-04-30T09:07:40.087Z,11840
2018-04-30T09:08:39.848Z,11724
2018-04-30T09:09:40.337Z,11628
2018-04-30T09:10:40.114Z,11480
2018-04-30T09:11:39.863Z,11472
2018-04-30T09:12:40.164Z,11468
2018-04-30T09:13:39.626Z,11340
2018-04-30T09:14:40.148Z,11004
2018-04-30T09:15:40.140Z,10212
2018-04-30T09:16:39.948Z,10808
2018-04-30T09:17:39.645Z,11328
2018-04-30T09:18:39.922Z,11820
2018-04-30T09:19:40.156Z,13032
2018-04-30T09:20:39.707Z,14620
2018-04-30T09:21:40.182Z,16388
2018-04-30T09:22:40.244Z,18016
2018-04-30T09:23:39.940Z,19232
2018-04-30T09:24:40.137Z,19904
2018-04-30T09:25:40.191Z,19680
2018-04-30T09:26:40.202Z,19200
2018-04-30T09:27:40.202Z,17632
2018-04-30T09:28:39.966Z,16740
2018-04-30T09:29:40.223Z,16472
2018-04-30T09:30:40.216Z,15612
2018-04-30T09:31:40.228Z,14352
2018-04-30T09:32:40.233Z,13040
2018-04-30T09:33:40.239Z,12152
2018-04-30T09:34:40.265Z,11620
2018-04-30T09:35:40.247Z,11776
2018-04-30T09:36:40.031Z,12828
2018-04-30T09:37:40.002Z,13496
2018-04-30T09:38:40.273Z,13868
2018-04-30T09:39:40.272Z,13964
2018-04-30T09:40:40.271Z,14540
2018-04-30T09:41:40.275Z,15168
2018-04-30T09:42:40.306Z,15668
2018-04-30T09:43:40.284Z,15076
2018-04-30T09:44:40.041Z,13984
2018-04-30T09:45:40.300Z,13636
2018-04-30T09:46:40.298Z,14020
2018-04-30T09:47:40.300Z,13924
2018-04-30T09:48:40.386Z,15936
2018-04-30T09:49:40.054Z,18400
2018-04-30T09:50:40.329Z,21216
2018-04-30T09:51:40.320Z,21056
2018-04-30T09:52:39.817Z,21568
2018-04-30T09:53:40.091Z,22848
2018-04-30T09:54:40.080Z,21440
2018-04-30T09:55:40.343Z,21824
2018-04-30T09:56:40.355Z,22688
2018-04-30T09:57:40.271Z,22464
2018-04-30T09:58:40.357Z,21696
2018-04-30T09:59:40.153Z,22528
2018-04-30T10:00:40.119Z,23040
2018-04-30T10:01:40.114Z,18400
2018-04-30T10:02:40.119Z,18656
2018-04-30T10:03:40.401Z,20128
2018-04-30T10:04:40.386Z,17952
2018-04-30T10:05:40.403Z,15388
2018-04-30T10:06:40.404Z,15340
2018-04-30T10:07:40.399Z,16752
2018-04-30T10:08:40.415Z,18400
2018-04-30T10:09:40.433Z,20352
2018-04-30T10:10:40.168Z,21856
2018-04-30T10:11:40.437Z,22720
2018-04-30T10:12:40.424Z,20384
2018-04-30T10:13:40.431Z,18656
2018-04-30T10:14:40.448Z,18528
2018-04-30T10:15:40.441Z,17308
2018-04-30T10:16:40.451Z,18112
2018-04-30T10:17:40.229Z,20416
2018-04-30T10:18:40.465Z,20448
2018-04-30T10:19:40.466Z,19936
2018-04-30T10:20:40.467Z,20896
2018-04-30T10:21:39.969Z,21920
2018-04-30T10:22:40.493Z,20576
2018-04-30T10:23:41.007Z,20160
2018-04-30T10:24:40.490Z,20512
2018-04-30T10:25:40.520Z,21024
2018-04-30T10:26:40.498Z,20544
2018-04-30T10:27:40.256Z,21376
2018-04-30T10:28:40.891Z,21216
2018-04-30T10:29:40.005Z,21920
2018-04-30T10:30:40.272Z,21152
2018-04-30T10:31:40.820Z,20448
2018-04-30T10:32:40.017Z,21888
2018-04-30T10:33:40.562Z,24864
2018-04-30T10:34:40.303Z,24800
2018-04-30T10:35:40.536Z,20832
2018-04-30T10:36:40.551Z,18720
2018-04-30T10:37:40.600Z,16768
2018-04-30T10:38:40.549Z,16960
2018-04-30T10:39:40.302Z,16640
2018-04-30T10:40:40.582Z,16960
2018-04-30T10:41:40.559Z,16608
2018-04-30T10:42:40.582Z,16800
2018-04-30T10:43:40.575Z,17312
2018-04-30T10:44:40.329Z,16896
2018-04-30T10:45:40.605Z,16320
2018-04-30T10:46:40.611Z,16256
2018-04-30T10:47:40.582Z,16480
2018-04-30T10:48:40.591Z,17536
2018-04-30T10:49:40.345Z,17056
2018-04-30T10:50:40.363Z,11688
2018-04-30T10:51:40.447Z,8600
2018-04-30T10:52:40.355Z,9244
2018-04-30T10:53:40.617Z,13100
2018-04-30T10:54:40.363Z,16064
2018-04-30T10:55:40.618Z,20224
2018-04-30T10:56:40.626Z,22688
2018-04-30T10:57:40.377Z,22400
2018-04-30T10:58:40.629Z,21824
2018-04-30T10:59:40.665Z,22816
2018-04-30T11:00:40.659Z,25120
2018-04-30T11:01:40.632Z,26880
2018-04-30T11:02:40.537Z,27712
2018-04-30T11:03:40.657Z,28512
2018-04-30T11:04:40.394Z,29152
2018-04-30T11:05:40.422Z,29472
2018-04-30T11:06:40.672Z,29216
2018-04-30T11:07:40.655Z,28224
2018-04-30T11:08:40.710Z,26400
2018-04-30T11:09:40.661Z,23936
2018-04-30T11:10:40.672Z,23136
2018-04-30T11:11:40.682Z,22432
2018-04-30T11:12:40.211Z,21792
2018-04-30T11:13:40.698Z,21024
2018-04-30T11:14:40.688Z,20544
2018-04-30T11:15:40.679Z,20352
2018-04-30T11:16:40.691Z,20608
2018-04-30T11:17:40.699Z,21472
2018-04-30T11:18:40.697Z,22496
2018-04-30T11:19:40.698Z,23776
2018-04-30T11:20:40.715Z,25216
2018-04-30T11:21:40.463Z,25760
2018-04-30T11:22:40.219Z,25888
2018-04-30T11:23:40.713Z,25952
2018-04-30T11:24:40.723Z,25472
2018-04-30T11:25:40.468Z,25280
2018-04-30T11:26:40.733Z,25888
2018-04-30T11:27:40.720Z,25984
2018-04-30T11:28:40.735Z,26080
2018-04-30T11:29:40.482Z,26240
2018-04-30T11:30:40.774Z,26368
2018-04-30T11:31:40.784Z,26432
2018-04-30T11:32:40.854Z,27040
2018-04-30T11:33:40.801Z,27456
2018-04-30T11:34:40.779Z,27360
2018-04-30T11:35:40.818Z,26656
2018-04-30T11:36:40.828Z,25312
2018-04-30T11:37:40.793Z,23968
2018-04-30T11:38:41.510Z,22528
2018-04-30T11:39:40.821Z,21408
2018-04-30T11:40:40.812Z,20960
2018-04-30T11:41:40.822Z,21344
2018-04-30T11:42:40.558Z,22240
2018-04-30T11:43:40.594Z,22848
2018-04-30T11:44:40.824Z,23360
2018-04-30T11:45:40.850Z,23168
2018-04-30T11:46:40.849Z,22688
2018-04-30T11:47:41.762Z,22784
2018-04-30T11:48:40.848Z,22432
2018-04-30T11:49:40.838Z,22720
2018-04-30T11:50:40.592Z,22528
2018-04-30T11:51:40.600Z,22752
2018-04-30T11:52:40.623Z,23104
2018-04-30T11:53:40.873Z,22976
2018-04-30T11:54:40.879Z,22848
2018-04-30T11:55:40.627Z,21664
2018-04-30T11:56:41.656Z,20032
2018-04-30T11:57:40.898Z,18080
2018-04-30T11:58:40.820Z,17216
2018-04-30T11:59:40.957Z,17952
2018-04-30T12:00:40.390Z,17920
2018-04-30T12:01:40.911Z,17312
2018-04-30T12:02:41.093Z,16288
2018-04-30T12:03:40.929Z,14812
2018-04-30T12:04:40.673Z,13880
2018-04-30T12:05:41.789Z,13012
2018-04-30T12:06:40.707Z,12400
2018-04-30T12:07:40.724Z,11564
2018-04-30T12:08:40.689Z,9688
2018-04-30T12:09:40.678Z,8644
2018-04-30T12:10:40.419Z,9732
2018-04-30T12:11:40.962Z,10664
2018-04-30T12:12:40.952Z,11300
2018-04-30T12:13:40.701Z,11388
2018-04-30T12:14:41.895Z,12736
2018-04-30T12:15:41.273Z,15904
2018-04-30T12:16:41.122Z,17696
2018-04-30T12:17:40.984Z,17024
2018-04-30T12:18:40.999Z,15936
2018-04-30T12:19:40.977Z,14396
2018-04-30T12:20:40.705Z,13480
2018-04-30T12:21:40.963Z,13052
2018-04-30T12:22:40.994Z,12748
2018-04-30T12:23:41.630Z,12204
2018-04-30T12:24:40.726Z,11316
2018-04-30T12:25:40.969Z,10928
2018-04-30T12:26:40.994Z,10316
2018-04-30T12:27:41.010Z,9824
2018-04-30T12:28:40.995Z,10844
2018-04-30T12:29:41.052Z,12356
2018-04-30T12:30:40.991Z,13668
2018-04-30T12:31:41.005Z,15468
2018-04-30T12:32:40.931Z,16512
2018-04-30T12:33:41.791Z,15808
2018-04-30T12:34:40.477Z,14788
2018-04-30T12:35:41.018Z,14624
2018-04-30T12:36:41.016Z,15168
2018-04-30T12:37:41.021Z,16064
2018-04-30T12:38:40.998Z,17632
2018-04-30T12:39:40.808Z,19904
2018-04-30T12:40:41.025Z,22144
2018-04-30T12:41:42.314Z,22784
2018-04-30T12:42:41.495Z,21600
2018-04-30T12:43:44.823Z,20256
2018-04-30T12:44:41.017Z,19392
2018-04-30T12:45:40.777Z,18464
2018-04-30T12:46:41.024Z,17280
2018-04-30T12:47:41.033Z,17280
2018-04-30T12:48:41.042Z,18464
2018-04-30T12:49:41.463Z,20224
2018-04-30T12:50:40.527Z,21184
2018-04-30T12:51:40.513Z,21408
2018-04-30T12:52:40.781Z,20800
2018-04-30T12:53:40.776Z,20000
2018-04-30T12:54:40.774Z,17824
2018-04-30T12:55:41.034Z,16032
2018-04-30T12:56:41.062Z,16256
2018-04-30T12:57:41.053Z,18016
2018-04-30T12:58:41.067Z,21216
2018-04-30T12:59:42.184Z,22272
2018-04-30T13:00:40.790Z,21024
2018-04-30T13:01:41.081Z,18464
2018-04-30T13:02:41.341Z,15768
2018-04-30T13:03:41.068Z,13700
2018-04-30T13:04:40.803Z,13492
2018-04-30T13:05:41.099Z,13712
2018-04-30T13:06:40.806Z,12932
2018-04-30T13:07:42.195Z,11056
2018-04-30T13:08:40.824Z,8884
2018-04-30T13:09:41.073Z,7072
2018-04-30T13:10:40.819Z,6496
2018-04-30T13:11:40.825Z,6632
2018-04-30T13:12:41.105Z,7072
2018-04-30T13:13:41.108Z,7640
2018-04-30T13:14:41.104Z,7784
2018-04-30T13:15:40.694Z,7364
2018-04-30T13:16:41.278Z,6828
2018-04-30T13:17:40.841Z,6432
2018-04-30T13:18:40.825Z,6812
2018-04-30T13:19:40.826Z,7484
2018-04-30T13:20:41.084Z,8636
2018-04-30T13:21:41.083Z,9492
2018-04-30T13:22:40.840Z,10544